Time;durP1;ratioP1;P1;durP2;ratioP2;P2;SDS_P1;SDS_P2;PMS_P1;PMS_P2;Temp;Humidity;BMP_temperature;BMP_pressure;BME280_temperature;BME280_humidity;BME280_pressure;Samples;Min_cycle;Max_cycle;Signal;HPM_P1;HPM_P2
2022/07/27 00:01:28;;;;;;;1999.90;999.90;;;13.90;99.90;;;;;;5091701;27;20038;-74
2022/07/27 00:03:54;;;;;;;1999.90;999.90;;;13.80;99.90;;;;;;5110918;27;20038;-74
2022/07/27 00:06:20;;;;;;;1999.90;999.90;;;13.80;99.90;;;;;;5094808;28;20110;-74
2022/07/27 00:08:45;;;;;;;1999.90;999.90;;;13.70;99.90;;;;;;5084116;27;20119;-74
2022/07/27 00:11:11;;;;;;;1999.90;999.90;;;13.60;99.90;;;;;;5091101;28;20047;-74
2022/07/27 00:13:37;;;;;;;1999.90;999.90;;;13.60;99.90;;;;;;5095391;27;20043;-74
2022/07/27 00:16:03;;;;;;;1999.90;999.90;;;13.50;99.90;;;;;;5096100;27;20147;-74
2022/07/27 00:18:28;;;;;;;1999.90;999.90;;;13.40;99.90;;;;;;5113353;27;20395;-74
2022/07/27 00:20:54;;;;;;;1999.90;999.90;;;13.40;99.90;;;;;;5114862;27;20475;-74
2022/07/27 00:23:20;;;;;;;1999.90;999.90;;;13.30;99.90;;;;;;5114431;27;20047;-74
2022/07/27 00:25:46;;;;;;;1999.90;999.90;;;13.20;99.90;;;;;;5096886;27;20049;-74
2022/07/27 00:28:11;;;;;;;1999.90;999.90;;;13.10;99.90;;;;;;5108274;28;20039;-74
2022/07/27 00:30:37;;;;;;;1999.90;999.90;;;13.00;99.90;;;;;;5111380;27;20047;-74
2022/07/27 00:33:04;;;;;;;1999.90;999.90;;;12.90;99.90;;;;;;5110351;27;20035;-74
2022/07/27 00:35:31;;;;;;;1999.90;999.90;;;12.80;99.90;;;;;;5110079;27;20031;-74
2022/07/27 00:37:56;;;;;;;1999.90;999.90;;;12.70;99.90;;;;;;5094940;27;20050;-73
2022/07/27 00:40:22;;;;;;;1999.90;999.90;;;12.50;99.90;;;;;;5097043;27;20043;-74
2022/07/27 00:42:48;;;;;;;1999.90;999.90;;;12.40;99.90;;;;;;5110521;28;20096;-74
2022/07/27 00:45:13;;;;;;;1999.90;999.90;;;12.40;99.90;;;;;;5106905;27;20043;-74
2022/07/27 00:47:39;;;;;;;1999.90;999.90;;;12.30;99.90;;;;;;5114135;27;20054;-74
2022/07/27 00:50:05;;;;;;;1999.90;999.90;;;12.20;99.90;;;;;;5097138;27;20122;-74
2022/07/27 00:52:31;;;;;;;1999.90;999.90;;;12.10;99.90;;;;;;5085203;27;20050;-74
2022/07/27 00:54:57;;;;;;;1999.90;999.90;;;12.10;99.90;;;;;;5114552;27;20043;-74
2022/07/27 00:57:25;;;;;;;1999.90;999.90;;;12.00;99.90;;;;;;5112491;27;20039;-74
2022/07/27 00:59:50;;;;;;;1999.90;999.90;;;12.00;99.90;;;;;;5094068;27;20078;-74
2022/07/27 01:02:16;;;;;;;1999.90;999.90;;;12.00;99.90;;;;;;5112030;27;20485;-74
2022/07/27 01:04:42;;;;;;;1999.90;999.90;;;11.90;99.90;;;;;;5096959;27;20045;-74
2022/07/27 01:07:08;;;;;;;1999.90;999.90;;;11.90;99.90;;;;;;5105773;27;20074;-74
2022/07/27 01:12:19;;;;;;;1999.90;999.90;;;11.90;99.90;;;;;;5105515;27;20043;-74
2022/07/27 01:14:47;;;;;;;1999.90;999.90;;;11.90;99.90;;;;;;5111692;27;20050;-74
2022/07/27 01:17:13;;;;;;;1999.90;999.90;;;11.90;99.90;;;;;;5091077;28;20040;-74
2022/07/27 01:19:39;;;;;;;1999.90;999.90;;;12.00;99.90;;;;;;5093567;27;20436;-74
2022/07/27 01:22:05;;;;;;;1999.90;999.90;;;12.00;99.90;;;;;;5114965;27;20050;-74
2022/07/27 01:24:31;;;;;;;1999.90;999.90;;;12.10;99.90;;;;;;5113321;27;20538;-74
2022/07/27 01:26:59;;;;;;;1999.90;999.90;;;12.10;99.90;;;;;;5110455;27;20039;-74
2022/07/27 01:29:24;;;;;;;1999.90;999.90;;;12.10;99.90;;;;;;5092188;27;20043;-74
2022/07/27 01:31:50;;;;;;;1999.90;999.90;;;12.10;99.90;;;;;;5098182;27;20047;-74
2022/07/27 01:34:16;;;;;;;1999.90;999.90;;;12.10;99.90;;;;;;5113876;27;20447;-74
2022/07/27 01:36:42;;;;;;;1999.90;999.90;;;12.20;99.90;;;;;;5113371;27;20046;-74
2022/07/27 01:39:07;;;;;;;1999.90;999.90;;;12.20;99.90;;;;;;5112610;27;20055;-74
2022/07/27 01:41:33;;;;;;;1999.90;999.90;;;12.20;99.90;;;;;;5109459;27;20045;-74
2022/07/27 01:43:59;;;;;;;1999.90;999.90;;;12.20;99.90;;;;;;5112931;27;20042;-74
2022/07/27 01:46:24;;;;;;;1999.90;999.90;;;12.10;99.90;;;;;;5084528;27;20043;-74
2022/07/27 01:48:50;;;;;;;1999.90;999.90;;;12.10;99.90;;;;;;5095613;27;20035;-74
2022/07/27 01:51:16;;;;;;;1999.90;999.90;;;12.00;99.90;;;;;;5098019;28;20043;-74
2022/07/27 01:53:41;;;;;;;1999.90;999.90;;;12.00;99.90;;;;;;5090937;27;20045;-74
2022/07/27 01:56:11;;;;;;;1999.90;999.90;;;11.90;99.90;;;;;;5094202;27;20035;-74
2022/07/27 01:58:38;;;;;;;1999.90;999.90;;;11.90;99.90;;;;;;5093731;27;20043;-74
2022/07/27 02:01:04;;;;;;;1999.90;999.90;;;11.80;99.90;;;;;;5093317;27;20039;-74
2022/07/27 02:03:31;;;;;;;1999.90;999.90;;;11.80;99.90;;;;;;5112117;27;20046;-74
2022/07/27 02:05:56;;;;;;;1999.90;999.90;;;11.70;99.90;;;;;;5107476;27;20051;-74
2022/07/27 02:08:22;;;;;;;1999.90;999.90;;;11.70;99.90;;;;;;5097393;27;20096;-74
2022/07/27 02:13:33;;;;;;;1999.90;999.90;;;11.50;99.90;;;;;;5111436;27;20050;-74
2022/07/27 02:15:59;;;;;;;1999.90;999.90;;;11.50;99.90;;;;;;5091242;27;20446;-74
2022/07/27 02:18:25;;;;;;;1999.90;999.90;;;11.50;99.90;;;;;;5090626;27;20063;-74
2022/07/27 02:20:51;;;;;;;1999.90;999.90;;;11.40;99.90;;;;;;5094423;27;20066;-74
2022/07/27 02:23:16;;;;;;;1999.90;999.90;;;11.40;99.90;;;;;;5091655;27;20043;-74
2022/07/27 02:25:43;;;;;;;1999.90;999.90;;;11.30;99.90;;;;;;5108222;27;20040;-74
2022/07/27 02:28:09;;;;;;;1999.90;999.90;;;11.30;99.90;;;;;;5101166;27;20619;-74
2022/07/27 02:30:35;;;;;;;1999.90;999.90;;;11.30;99.90;;;;;;5092859;27;20036;-74
2022/07/27 02:33:00;;;;;;;1999.90;999.90;;;11.30;99.90;;;;;;5095145;27;20491;-74
2022/07/27 02:35:26;;;;;;;1999.90;999.90;;;11.30;99.90;;;;;;5110471;27;20177;-74
2022/07/27 02:37:52;;;;;;;1999.90;999.90;;;11.30;99.90;;;;;;5093808;28;20396;-74
2022/07/27 02:40:18;;;;;;;1999.90;999.90;;;11.30;99.90;;;;;;5087667;28;20525;-74
2022/07/27 02:42:45;;;;;;;1999.90;999.90;;;11.40;99.90;;;;;;5077136;28;20044;-74
2022/07/27 02:45:11;;;;;;;1999.90;999.90;;;11.40;99.90;;;;;;5104568;28;20083;-74
2022/07/27 02:47:38;;;;;;;1999.90;999.90;;;11.40;99.90;;;;;;5108382;28;20122;-74
2022/07/27 02:50:05;;;;;;;1999.90;999.90;;;11.50;99.90;;;;;;5091304;28;20039;-74
2022/07/27 02:52:31;;;;;;;1999.90;999.90;;;11.60;99.90;;;;;;5091690;28;20044;-74
2022/07/27 02:54:57;;;;;;;1999.90;999.90;;;11.60;99.90;;;;;;5102718;28;20047;-74
2022/07/27 02:57:23;;;;;;;1999.90;999.90;;;11.70;99.90;;;;;;5107894;28;20399;-74
2022/07/27 02:59:49;;;;;;;1999.90;999.90;;;11.70;99.90;;;;;;5106854;28;20550;-74
2022/07/27 03:02:14;;;;;;;1999.90;999.90;;;11.70;99.90;;;;;;5101608;28;20461;-74
2022/07/27 03:04:40;;;;;;;1999.90;999.90;;;11.70;99.90;;;;;;5108137;28;20055;-74
2022/07/27 03:07:06;;;;;;;1999.90;999.90;;;11.80;99.90;;;;;;5090685;28;20134;-74
2022/07/27 03:09:31;;;;;;;1999.90;999.90;;;11.80;99.90;;;;;;5108384;28;20143;-74
2022/07/27 03:11:57;;;;;;;1999.90;999.90;;;11.80;99.90;;;;;;5095452;28;20500;-74
2022/07/27 03:14:22;;;;;;;1999.90;999.90;;;11.80;99.90;;;;;;5088110;28;20122;-74
2022/07/27 03:16:48;;;;;;;1999.90;999.90;;;11.90;99.90;;;;;;5088401;28;20432;-74
2022/07/27 03:19:14;;;;;;;1999.90;999.90;;;11.90;99.90;;;;;;5089118;28;20044;-74
2022/07/27 03:21:39;;;;;;;1999.90;999.90;;;11.90;99.90;;;;;;5090362;27;20044;-74
2022/07/27 03:24:05;;;;;;;1999.90;999.90;;;11.90;99.90;;;;;;5097578;28;20495;-74
2022/07/27 03:26:32;;;;;;;1999.90;999.90;;;11.90;99.90;;;;;;5088289;28;20491;-74
2022/07/27 03:28:58;;;;;;;1999.90;999.90;;;12.00;99.90;;;;;;5090453;28;20043;-74
2022/07/27 03:31:24;;;;;;;1999.90;999.90;;;12.00;99.90;;;;;;5103347;28;20046;-74
2022/07/27 03:33:49;;;;;;;1999.90;999.90;;;12.00;99.90;;;;;;5107580;28;20031;-74
2022/07/27 03:36:15;;;;;;;1999.90;999.90;;;12.00;99.90;;;;;;5087126;28;20528;-74
2022/07/27 03:38:41;;;;;;;1999.90;999.90;;;12.10;99.90;;;;;;5090317;28;20582;-74
2022/07/27 03:41:06;;;;;;;1999.90;999.90;;;12.10;99.90;;;;;;5107587;28;20090;-74
2022/07/27 03:43:33;;;;;;;1999.90;999.90;;;12.10;99.90;;;;;;5094041;28;20071;-74
2022/07/27 03:46:00;;;;;;;1999.90;999.90;;;12.10;99.90;;;;;;5080202;28;20544;-74
2022/07/27 03:48:26;;;;;;;1999.90;999.90;;;12.20;99.90;;;;;;5092615;28;20040;-74
2022/07/27 03:50:52;;;;;;;1999.90;999.90;;;12.20;99.90;;;;;;5088747;28;20046;-74
2022/07/27 03:53:20;;;;;;;1999.90;999.90;;;12.20;99.90;;;;;;5104783;28;20036;-74
2022/07/27 03:55:47;;;;;;;1999.90;999.90;;;12.30;99.90;;;;;;5107179;28;20051;-74
2022/07/27 03:58:13;;;;;;;1999.90;999.90;;;12.20;99.90;;;;;;5090300;28;20456;-74
2022/07/27 04:00:38;;;;;;;1999.90;999.90;;;12.30;99.90;;;;;;5105090;28;20082;-74
2022/07/27 04:03:04;;;;;;;1999.90;999.90;;;12.30;99.90;;;;;;5103836;28;20158;-74
2022/07/27 04:05:30;;;;;;;1999.90;999.90;;;12.30;99.90;;;;;;5086950;28;20047;-74
2022/07/27 04:07:56;;;;;;;1999.90;999.90;;;12.30;99.90;;;;;;5105153;28;20051;-74
2022/07/27 04:10:23;;;;;;;1999.90;999.90;;;12.30;99.90;;;;;;5085980;28;20048;-74
2022/07/27 04:12:49;;;;;;;1999.90;999.90;;;12.40;99.90;;;;;;5087139;28;20384;-74
2022/07/27 04:15:17;;;;;;;1999.90;999.90;;;12.40;99.90;;;;;;5105122;28;20096;-74
2022/07/27 04:17:44;;;;;;;1999.90;999.90;;;12.50;99.90;;;;;;5108356;28;20068;-74
2022/07/27 04:20:09;;;;;;;1999.90;999.90;;;12.40;99.90;;;;;;5109078;28;20055;-74
2022/07/27 04:22:35;;;;;;;1999.90;999.90;;;12.50;99.90;;;;;;5088097;28;20125;-74
2022/07/27 04:25:01;;;;;;;1999.90;999.90;;;12.60;99.90;;;;;;5104549;28;20126;-74
2022/07/27 04:27:26;;;;;;;1999.90;999.90;;;12.70;99.90;;;;;;5103068;28;20050;-74
2022/07/27 04:29:52;;;;;;;1999.90;999.90;;;12.70;99.90;;;;;;5106612;28;20036;-74
2022/07/27 04:32:18;;;;;;;1999.90;999.90;;;12.80;99.90;;;;;;5098079;28;20042;-75
2022/07/27 04:34:44;;;;;;;1999.90;999.90;;;12.90;99.90;;;;;;5085489;28;20597;-74
2022/07/27 04:37:09;;;;;;;1999.90;999.90;;;12.90;99.90;;;;;;5104776;28;20047;-74
2022/07/27 04:39:35;;;;;;;1999.90;999.90;;;13.00;99.90;;;;;;5089578;28;20066;-74
2022/07/27 04:42:01;;;;;;;1999.90;999.90;;;13.10;99.90;;;;;;5105506;28;20407;-74
2022/07/27 04:44:26;;;;;;;1999.90;999.90;;;13.20;99.90;;;;;;5098267;28;20032;-74
2022/07/27 04:46:52;;;;;;;1999.90;999.90;;;13.20;99.90;;;;;;5084068;28;20372;-74
2022/07/27 04:49:18;;;;;;;1999.90;999.90;;;13.30;99.90;;;;;;5095726;28;20039;-74
2022/07/27 04:51:43;;;;;;;1999.90;999.90;;;13.40;99.90;;;;;;5092687;28;20035;-74
2022/07/27 04:54:10;;;;;;;1999.90;999.90;;;13.50;99.90;;;;;;5110343;28;20035;-74
2022/07/27 04:56:35;;;;;;;1999.90;999.90;;;13.50;99.90;;;;;;5096810;28;20044;-74
2022/07/27 04:59:01;;;;;;;1999.90;999.90;;;13.60;99.90;;;;;;5093500;28;20035;-74
2022/07/27 05:01:27;;;;;;;1999.90;999.90;;;13.60;99.90;;;;;;5109515;28;20035;-74
2022/07/27 05:03:53;;;;;;;1999.90;999.90;;;13.60;99.90;;;;;;5104878;28;20032;-74
2022/07/27 05:06:18;;;;;;;1999.90;999.90;;;13.60;99.90;;;;;;5105902;28;20071;-74
2022/07/27 05:08:44;;;;;;;1999.90;999.90;;;13.70;99.90;;;;;;5109938;28;20074;-74
2022/07/27 05:11:10;;;;;;;1999.90;999.90;;;13.70;99.90;;;;;;5110108;27;20135;-74
2022/07/27 05:13:39;;;;;;;1999.90;999.90;;;13.70;99.90;;;;;;5093077;28;20058;-74
2022/07/27 05:16:09;;;;;;;1999.90;999.90;;;13.70;99.90;;;;;;5091351;28;20464;-74
2022/07/27 05:18:36;;;;;;;1999.90;999.90;;;13.70;99.90;;;;;;5104744;27;20035;-74
2022/07/27 05:21:02;;;;;;;1999.90;999.90;;;13.70;99.90;;;;;;5108619;28;20120;-74
2022/07/27 05:23:28;;;;;;;1999.90;999.90;;;13.70;99.90;;;;;;5109748;28;20035;-74
2022/07/27 05:25:53;;;;;;;1999.90;999.90;;;13.80;99.90;;;;;;5106143;27;20085;-74
2022/07/27 05:28:19;;;;;;;1999.90;999.90;;;13.80;99.90;;;;;;5109531;28;20054;-74
2022/07/27 05:30:45;;;;;;;1999.90;999.90;;;13.90;99.90;;;;;;5091126;28;20385;-74
2022/07/27 05:33:11;;;;;;;1999.90;999.90;;;14.00;99.90;;;;;;5093646;28;20040;-74
2022/07/27 05:35:36;;;;;;;1999.90;999.90;;;14.00;99.90;;;;;;5111692;27;20551;-74
2022/07/27 05:38:02;;;;;;;1999.90;999.90;;;14.10;99.90;;;;;;5094587;27;20046;-74
2022/07/27 05:40:28;;;;;;;1999.90;999.90;;;14.20;99.90;;;;;;5108062;27;20512;-74
2022/07/27 05:42:56;;;;;;;1999.90;999.90;;;14.20;99.90;;;;;;5113242;27;20129;-74
2022/07/27 05:45:22;;;;;;;1999.90;999.90;;;14.20;99.90;;;;;;5107402;28;20058;-75
2022/07/27 05:47:47;;;;;;;1999.90;999.90;;;14.30;99.90;;;;;;5100024;27;20039;-75
2022/07/27 05:50:14;;;;;;;1999.90;999.90;;;14.30;99.90;;;;;;5112577;27;20490;-74
2022/07/27 05:52:40;;;;;;;1999.90;999.90;;;14.40;99.90;;;;;;5089574;27;20554;-74
2022/07/27 05:55:06;;;;;;;1999.90;999.90;;;14.50;99.90;;;;;;5111500;27;20113;-75
2022/07/27 05:57:31;;;;;;;1999.90;999.90;;;14.50;99.90;;;;;;5109629;27;20119;-75
2022/07/27 05:59:59;;;;;;;1999.90;999.90;;;14.60;99.90;;;;;;5095278;27;20129;-75
2022/07/27 06:02:26;;;;;;;1999.90;999.90;;;14.80;99.90;;;;;;5109099;27;20043;-75
2022/07/27 06:04:53;;;;;;;1999.90;999.90;;;14.90;99.90;;;;;;5095665;27;20039;-74
2022/07/27 06:10:04;;;;;;;1999.90;999.90;;;15.30;99.90;;;;;;5112204;27;20047;-74
2022/07/27 06:12:29;;;;;;;1999.90;999.90;;;15.40;99.90;;;;;;5112184;27;20042;-74
2022/07/27 06:14:55;;;;;;;1999.90;999.90;;;15.60;99.90;;;;;;5094392;27;20216;-74
2022/07/27 06:17:21;;;;;;;1999.90;999.90;;;15.80;99.90;;;;;;5108947;27;20379;-74
2022/07/27 06:19:46;;;;;;;1999.90;999.90;;;16.00;99.90;;;;;;5090319;28;20056;-74
2022/07/27 06:22:12;;;;;;;1999.90;999.90;;;16.40;99.90;;;;;;5089557;27;20039;-74
2022/07/27 06:24:37;;;;;;;1999.90;999.90;;;17.80;99.90;;;;;;5112278;27;20047;-74
2022/07/27 06:27:03;;;;;;;1999.90;999.90;;;18.40;99.90;;;;;;5088044;28;20065;-75
2022/07/27 06:29:29;;;;;;;1999.90;999.90;;;19.20;99.90;;;;;;5109975;27;20414;-74
2022/07/27 06:31:54;;;;;;;1999.90;999.90;;;20.30;99.90;;;;;;5110940;27;20039;-74
2022/07/27 06:34:20;;;;;;;1999.90;999.90;;;21.20;99.90;;;;;;5095431;27;20039;-75
2022/07/27 06:36:45;;;;;;;1999.90;999.90;;;20.80;99.90;;;;;;5107242;27;20118;-75
2022/07/27 06:39:11;;;;;;;1999.90;999.90;;;20.40;99.90;;;;;;5115761;27;20103;-75
2022/07/27 06:41:37;;;;;;;1999.90;999.90;;;20.10;99.90;;;;;;5110166;27;20038;-75
2022/07/27 06:44:03;;;;;;;1999.90;999.90;;;20.50;99.90;;;;;;5112053;27;20062;-74
2022/07/27 06:46:29;;;;;;;1999.90;999.90;;;21.10;99.90;;;;;;5080121;27;20031;-75
2022/07/27 06:48:55;;;;;;;1999.90;999.90;;;21.70;99.90;;;;;;5108333;27;20191;-75
2022/07/27 06:51:22;;;;;;;1999.90;999.90;;;22.40;99.90;;;;;;5102863;27;20474;-75
2022/07/27 06:53:51;;;;;;;1999.90;999.90;;;22.00;99.90;;;;;;5108671;27;20043;-75
2022/07/27 06:56:18;;;;;;;1999.90;999.90;;;21.80;99.90;;;;;;5112241;27;20724;-75
2022/07/27 06:58:43;;;;;;;1999.90;999.90;;;21.70;99.90;;;;;;5095260;27;20417;-75
2022/07/27 07:01:09;;;;;;;1999.90;999.90;;;21.70;99.90;;;;;;5108017;27;20042;-75
2022/07/27 07:03:34;;;;;;;1999.90;999.90;;;22.20;99.90;;;;;;5091884;27;20448;-75
2022/07/27 07:06:00;;;;;;;1999.90;999.90;;;22.70;99.90;;;;;;5111289;27;20042;-74
2022/07/27 07:08:26;;;;;;;1999.90;999.90;;;23.00;99.90;;;;;;5094489;27;20051;-75
2022/07/27 07:10:51;;;;;;;1999.90;999.90;;;23.10;99.30;;;;;;5089636;28;20513;-75
2022/07/27 07:13:17;;;;;;;1999.90;999.90;;;23.30;97.90;;;;;;5110788;27;20043;-75
2022/07/27 07:15:43;;;;;;;1999.90;999.90;;;23.60;99.90;;;;;;5111942;27;20467;-75
2022/07/27 07:18:10;;;;;;;1999.90;999.90;;;23.80;99.00;;;;;;5107548;27;20114;-74
2022/07/27 07:20:36;;;;;;;1999.90;999.90;;;23.90;98.70;;;;;;5105989;27;20099;-74
2022/07/27 07:23:02;;;;;;;1999.90;999.90;;;23.90;98.30;;;;;;5094193;27;20063;-75
2022/07/27 07:25:29;;;;;;;1999.90;999.90;;;23.90;98.80;;;;;;5111307;27;20376;-75
2022/07/27 07:27:55;;;;;;;1999.90;999.90;;;23.80;96.40;;;;;;5107860;28;20066;-74
2022/07/27 07:30:21;;;;;;;1999.90;999.90;;;23.10;96.40;;;;;;5093829;27;20046;-75
2022/07/27 07:32:47;;;;;;;1999.90;999.90;;;23.00;97.70;;;;;;5095554;27;20148;-72
2022/07/27 07:35:13;;;;;;;1999.90;999.90;;;22.70;95.90;;;;;;5116340;27;20112;-75
2022/07/27 07:37:39;;;;;;;1999.90;999.90;;;22.10;96.30;;;;;;5108882;28;20039;-74
2022/07/27 07:40:06;;;;;;;1999.90;999.90;;;21.20;97.10;;;;;;5092878;27;20544;-75
2022/07/27 07:42:44;;;;;;;1999.90;999.90;;;20.00;98.60;;;;;;5092436;28;20043;-74
2022/07/27 07:45:09;;;;;;;1999.90;999.90;;;19.10;99.90;;;;;;5094659;28;20039;-74
2022/07/27 07:47:35;;;;;;;1999.90;999.90;;;18.20;99.90;;;;;;5087280;28;20065;-74
2022/07/27 07:50:00;;;;;;;1999.90;999.90;;;17.50;99.90;;;;;;5094366;28;20035;-74
2022/07/27 07:52:26;;;;;;;1999.90;999.90;;;17.00;99.90;;;;;;5106855;28;20044;-74
2022/07/27 07:54:52;;;;;;;1999.90;999.90;;;16.50;99.90;;;;;;5106578;28;20119;-74
2022/07/27 07:57:17;;;;;;;1999.90;999.90;;;16.20;99.90;;;;;;5094219;28;20038;-74
2022/07/27 07:59:44;;;;;;;1999.90;999.90;;;16.10;99.90;;;;;;5106887;28;20053;-74
2022/07/27 08:02:09;;;;;;;1999.90;999.90;;;16.00;99.90;;;;;;5092538;28;20046;-74
2022/07/27 08:04:35;;;;;;;1999.90;999.90;;;16.00;99.90;;;;;;5116656;27;20042;-74
2022/07/27 08:07:01;;;;;;;1999.90;999.90;;;16.10;99.90;;;;;;5093635;27;20035;-74
2022/07/27 08:09:27;;;;;;;1999.90;999.90;;;16.10;99.90;;;;;;5105256;27;20035;-74
2022/07/27 08:11:53;;;;;;;1999.90;999.90;;;16.20;99.90;;;;;;5112848;28;20039;-74
2022/07/27 08:14:18;;;;;;;1999.90;999.90;;;16.30;99.90;;;;;;5107511;28;20042;-74
2022/07/27 08:16:44;;;;;;;1999.90;999.90;;;16.40;99.90;;;;;;5096147;28;20043;-75
2022/07/27 08:19:09;;;;;;;1999.90;999.90;;;16.50;99.90;;;;;;5114385;28;20495;-75
2022/07/27 08:21:35;;;;;;;1999.90;999.90;;;16.70;99.90;;;;;;5112477;28;20197;-75
2022/07/27 08:24:01;;;;;;;1999.90;999.90;;;16.80;99.90;;;;;;5097148;27;20084;-75
2022/07/27 08:26:27;;;;;;;1999.90;999.90;;;16.80;99.90;;;;;;5099126;27;20035;-74
2022/07/27 08:28:53;;;;;;;1999.90;999.90;;;16.90;99.90;;;;;;5107346;27;20073;-75
2022/07/27 08:31:18;;;;;;;1999.90;999.90;;;17.00;99.90;;;;;;5110691;28;20043;-75
2022/07/27 08:33:44;;;;;;;1999.90;999.90;;;17.20;99.90;;;;;;5092633;27;20039;-74
2022/07/27 08:36:09;;;;;;;1999.90;999.90;;;17.50;99.90;;;;;;5109358;27;20038;-75
2022/07/27 08:38:35;;;;;;;1999.90;999.90;;;17.70;99.90;;;;;;5095349;28;20047;-74
2022/07/27 08:41:02;;;;;;;1999.90;999.90;;;17.90;99.90;;;;;;5114546;27;20046;-74
2022/07/27 08:43:29;;;;;;;1999.90;999.90;;;18.00;99.90;;;;;;5095618;28;20521;-75
2022/07/27 08:45:58;;;;;;;1999.90;999.90;;;18.20;99.90;;;;;;5105572;27;20122;-74
2022/07/27 08:48:30;;;;;;;1999.90;999.90;;;18.50;99.90;;;;;;5110424;27;20039;-74
2022/07/27 08:50:56;;;;;;;1999.90;999.90;;;18.60;99.90;;;;;;5110801;28;20146;-74
2022/07/27 08:53:22;;;;;;;1999.90;999.90;;;18.80;99.90;;;;;;5110198;28;20365;-74
2022/07/27 08:55:48;;;;;;;1999.90;999.90;;;19.00;99.90;;;;;;5102051;28;20050;-75
2022/07/27 08:58:15;;;;;;;1999.90;999.90;;;19.20;99.90;;;;;;5110800;28;20073;-74
2022/07/27 09:00:45;;;;;;;1999.90;999.90;;;19.40;99.90;;;;;;5087017;28;20043;-74
2022/07/27 09:03:12;;;;;;;1999.90;999.90;;;19.60;99.90;;;;;;5092490;28;20039;-74
2022/07/27 09:05:46;;;;;;;1999.90;999.90;;;19.70;99.90;;;;;;5113403;27;20555;-75
2022/07/27 09:08:20;;;;;;;1999.90;999.90;;;19.80;99.90;;;;;;5119942;27;20044;-74
2022/07/27 09:10:46;;;;;;;1999.90;999.90;;;19.90;99.90;;;;;;5097340;27;20054;-75
2022/07/27 09:13:19;;;;;;;1999.90;999.90;;;20.00;99.90;;;;;;5113094;27;20041;-75
2022/07/27 09:15:46;;;;;;;1999.90;999.90;;;20.40;99.90;;;;;;5094914;28;20436;-75
2022/07/27 09:18:21;;;;;;;1999.90;999.90;;;20.80;99.90;;;;;;5106715;27;20045;-75
2022/07/27 09:21:10;;;;;;;1999.90;999.90;;;21.10;99.90;;;;;;5124308;27;20043;-75
2022/07/27 09:23:42;;;;;;;1999.90;999.90;;;21.30;99.90;;;;;;5094441;28;20051;-75
2022/07/27 09:26:12;;;;;;;1999.90;999.90;;;21.20;99.60;;;;;;5094880;28;20074;-75
2022/07/27 09:28:38;;;;;;;1999.90;999.90;;;21.00;98.00;;;;;;5110959;27;20479;-75
2022/07/27 09:31:10;;;;;;;1999.90;999.90;;;20.70;99.20;;;;;;5112705;27;20078;-75
2022/07/27 09:33:53;;;;;;;1999.90;999.90;;;20.60;99.20;;;;;;5094879;28;20031;-75
2022/07/27 09:36:22;;;;;;;1999.90;999.90;;;20.40;98.80;;;;;;5112148;27;20057;-74
2022/07/27 09:38:53;;;;;;;1999.90;999.90;;;20.20;98.60;;;;;;5109429;27;20052;-73
2022/07/27 09:41:19;;;;;;;1999.90;999.90;;;20.20;99.70;;;;;;5111180;27;20411;-74
2022/07/27 09:43:51;;;;;;;1999.90;999.90;;;20.20;99.50;;;;;;5111414;27;20047;-74
2022/07/27 09:46:34;;;;;;;1999.90;999.90;;;20.10;97.70;;;;;;5101506;27;20058;-74
2022/07/27 09:49:01;;;;;;;1999.90;999.90;;;20.10;97.60;;;;;;5099427;28;20502;-74
2022/07/27 09:51:26;;;;;;;1999.90;999.90;;;19.90;98.20;;;;;;5091549;28;20039;-75
2022/07/27 09:53:53;;;;;;;1999.90;999.90;;;20.30;98.20;;;;;;5091569;28;20155;-74
2022/07/27 09:56:26;;;;;;;1999.90;999.90;;;20.90;96.30;;;;;;5105970;28;20046;-74
2022/07/27 09:58:59;;;;;;;1999.90;999.90;;;21.40;95.40;;;;;;5107783;28;20043;-74
2022/07/27 10:01:33;;;;;;;1999.90;999.90;;;21.60;93.70;;;;;;5106186;28;20088;-74
2022/07/27 10:04:02;;;;;;;1999.90;999.90;;;22.20;94.80;;;;;;5090866;28;20558;-74
2022/07/27 10:06:29;;;;;;;1999.90;999.90;;;22.60;92.50;;;;;;5091277;28;20046;-75
2022/07/27 10:08:56;;;;;;;1999.90;999.90;;;22.90;91.90;;;;;;5085301;28;20052;-75
2022/07/27 10:11:23;;;;;;;1999.90;999.90;;;23.10;90.70;;;;;;5107557;27;20147;-75
2022/07/27 10:13:51;;;;;;;1999.90;999.90;;;23.30;90.10;;;;;;5105629;27;20453;-75
2022/07/27 10:16:26;;;;;;;1999.90;999.90;;;23.10;91.00;;;;;;5103091;28;20043;-74
2022/07/27 10:19:04;;;;;;;1999.90;999.90;;;22.80;90.30;;;;;;5086900;28;20035;-74
2022/07/27 10:21:38;;;;;;;1999.90;999.90;;;22.70;86.30;;;;;;5096903;28;20567;-74
2022/07/27 10:24:09;;;;;;;1999.90;999.90;;;22.50;90.20;;;;;;5107647;27;20151;-74
2022/07/27 10:26:38;;;;;;;1999.90;999.90;;;22.70;89.40;;;;;;5107120;27;20042;-75
2022/07/27 10:29:06;;;;;;;1999.90;999.90;;;22.60;86.50;;;;;;5104634;27;20039;-74
2022/07/27 10:31:31;;;;;;;1999.90;999.90;;;22.20;84.60;;;;;;5104893;27;20060;-75
2022/07/27 10:33:59;;;;;;;1999.90;999.90;;;21.60;82.80;;;;;;5104885;27;20068;-74
2022/07/27 10:36:31;;;;;;;1999.90;999.90;;;21.10;83.50;;;;;;5096426;27;20043;-74
2022/07/27 10:39:01;;;;;;;1999.90;999.90;;;20.60;83.90;;;;;;5097346;27;20062;-74
2022/07/27 10:41:38;;;;;;;1999.90;999.90;;;20.30;85.40;;;;;;5098799;27;20065;-74
2022/07/27 10:44:13;;;;;;;1999.90;999.90;;;20.20;86.90;;;;;;5111906;27;20175;-74
2022/07/27 10:47:06;;;;;;;1999.90;999.90;;;20.30;86.00;;;;;;5104111;27;20076;-74
2022/07/27 10:49:34;;;;;;;1999.90;999.90;;;20.50;88.30;;;;;;5103593;28;20054;-74
2022/07/27 10:52:01;;;;;;;1999.90;999.90;;;20.90;88.40;;;;;;5106774;27;20487;-74
2022/07/27 10:54:37;;;;;;;1999.90;999.90;;;21.50;87.20;;;;;;5089042;28;20044;-74
2022/07/27 10:57:06;;;;;;;1999.90;999.90;;;21.90;86.80;;;;;;5104714;28;20042;-75
2022/07/27 10:59:38;;;;;;;1999.90;999.90;;;22.10;82.50;;;;;;5090300;27;20440;-73
2022/07/27 11:02:11;;;;;;;1999.90;999.90;;;22.20;83.80;;;;;;5105554;27;20449;-74
2022/07/27 11:04:48;;;;;;;1999.90;999.90;;;22.30;79.70;;;;;;5096759;27;20047;-75
2022/07/27 11:07:21;;;;;;;1999.90;999.90;;;22.50;82.80;;;;;;5094393;28;20495;-75
2022/07/27 11:09:50;;;;;;;1999.90;999.90;;;22.80;82.10;;;;;;5099025;27;20045;-75
2022/07/27 11:12:16;;;;;;;1999.90;999.90;;;23.10;81.20;;;;;;5112726;27;20067;-75
2022/07/27 11:14:51;;;;;;;1999.90;999.90;;;23.00;75.60;;;;;;5099873;27;20039;-75
2022/07/27 11:17:22;;;;;;;1999.90;999.90;;;22.60;75.20;;;;;;5087498;28;20085;-75
2022/07/27 11:19:52;;;;;;;1999.90;999.90;;;22.20;76.70;;;;;;5109771;27;20047;-74
2022/07/27 11:22:32;;;;;;;1999.90;999.90;;;22.30;78.20;;;;;;5108577;27;20039;-75
2022/07/27 11:24:58;;;;;;;1999.90;999.90;;;22.60;76.40;;;;;;5087677;28;20050;-75
2022/07/27 11:27:24;;;;;;;1999.90;999.90;;;22.90;76.30;;;;;;5084576;28;20047;-76
2022/07/27 11:29:50;;;;;;;1999.90;999.90;;;23.20;77.20;;;;;;5106295;27;20046;-75
2022/07/27 11:32:19;;;;;;;1999.90;999.90;;;23.40;75.00;;;;;;5090246;28;20044;-76
2022/07/27 11:34:46;;;;;;;1999.90;999.90;;;23.50;74.20;;;;;;5082533;27;20043;-73
2022/07/27 11:37:17;;;;;;;1999.90;999.90;;;23.80;74.20;;;;;;5111674;27;20055;-75
2022/07/27 11:39:44;;;;;;;1999.90;999.90;;;23.80;71.70;;;;;;5099404;27;20052;-75
2022/07/27 11:42:10;;;;;;;1999.90;999.90;;;23.30;70.70;;;;;;5096073;28;20095;-75
2022/07/27 11:44:37;;;;;;;1999.90;999.90;;;22.80;71.50;;;;;;5098574;28;20132;-73
2022/07/27 11:47:03;;;;;;;1999.90;999.90;;;22.80;73.30;;;;;;5086504;28;20085;-75
2022/07/27 11:49:30;;;;;;;1999.90;999.90;;;22.90;72.20;;;;;;5109016;28;20042;-75
2022/07/27 11:51:59;;;;;;;1999.90;999.90;;;22.90;72.80;;;;;;5086938;28;20624;-75
2022/07/27 11:54:34;;;;;;;1999.90;999.90;;;23.10;73.90;;;;;;5105565;28;20047;-75
2022/07/27 11:57:09;;;;;;;1999.90;999.90;;;23.50;73.80;;;;;;5111185;28;20066;-75
2022/07/27 11:59:40;;;;;;;1999.90;999.90;;;23.60;73.80;;;;;;5116857;27;20038;-74
2022/07/27 12:02:15;;;;;;;1999.90;999.90;;;23.40;71.70;;;;;;5109533;27;20050;-75
2022/07/27 12:04:45;;;;;;;1999.90;999.90;;;22.80;70.70;;;;;;5110504;27;20039;-75
2022/07/27 12:07:18;;;;;;;1999.90;999.90;;;22.10;71.70;;;;;;5109635;27;20052;-75